Data for 07/05/2008

Time Sea-Level Adjusted Pressure Absolute Pressure Temperature Relative Humidity Dew Point   
(mb) (inHg) (mb) (inHg) (C) (F) (%) (C) (F)
00:05 1015 29.97 844 24.92 17.9 64.3 51 7.8 46.1
00:10 1015 29.97 844 24.92 17.8 64 50 7.5 45.4
00:15 1015 29.97 844 24.92 17.8 64.1 50 7.3 45.1
00:20 1015 29.97 844 24.92 18 64.4 50 7.6 45.7
00:25 1015 29.97 844 24.92 18 64.3 49 7.1 44.8
00:30 1015 29.97 844 24.92 18.3 64.9 46 6.7 44
00:35 1015 29.97 844 24.92 18.7 65.7 45 6.8 44.2
00:40 1015 29.97 844 24.92 18.6 65.5 49 7.8 46.1
00:45 1015 29.97 844 24.92 17.9 64.2 51 7.7 45.9
00:50 1015 29.97 844 24.92 17.6 63.6 50 7 44.6
00:55 1015 29.97 844 24.92 17.7 63.9 49 7.1 44.8
01:00 1015 29.97 844 24.92 17.7 63.9 50 7.2 44.9
01:05 1015 29.97 844 24.92 17.9 64.3 48 6.9 44.4
01:10 1015 29.97 844 24.92 18.5 65.3 46 6.8 44.2
01:15 1015 29.97 844 24.92 18.7 65.7 48 7.5 45.5
01:20 1015 29.97 845 24.95 18.1 64.6 51 7.9 46.2
01:25 1015 29.97 845 24.95 17.9 64.2 49 7.3 45.1
01:30 1015 29.97 845 24.95 17.8 64.1 52 7.9 46.1
01:35 1016 30 845 24.95 17.6 63.7 51 7.5 45.6
01:40 1016 30 845 24.95 17.5 63.6 52 7.7 45.8
01:45 1016 30 845 24.95 17.6 63.7 50 7.3 45.2
01:50 1016 30 845 24.95 17.8 64 50 7.4 45.3
01:55 1016 30 845 24.95 17.6 63.8 52 7.6 45.8
02:00 1016 30 845 24.95 17.6 63.6 52 7.8 46
02:05 1016 30 845 24.95 17 62.7 55 8.1 46.5
02:10 1016 30 845 24.95 16.5 61.8 57 8.1 46.6
02:15 1016 30 845 24.95 16.4 61.5 57 7.9 46.2
02:20 1016 30 845 24.95 16.7 62 54 7.5 45.4
02:25 1016 30 845 24.95 16.9 62.4 54 7.7 45.8
02:30 1016 30 845 24.95 17.3 63.2 52 7.6 45.6
02:35 1016 30 845 24.95 17.6 63.7 52 7.8 46
02:40 1016 30 845 24.95 17.7 63.9 53 8.1 46.6
02:45 1016 30 845 24.95 17.5 63.5 54 8.3 46.9
02:50 1016 30 845 24.95 17.2 62.9 57 8.6 47.4
02:55 1016 30 845 24.95 17 62.6 57 8.5 47.2
03:00 1016 30 846 24.98 17.2 63 56 8.6 47.5
03:05 1016 30 846 24.98 17.4 63.3 57 8.9 48
03:10 1017 30.03 846 24.98 17.4 63.3 57 8.8 47.9
03:15 1017 30.03 846 24.98 17.6 63.6 56 8.9 48
03:20 1016 30 846 24.98 17.6 63.7 60 9.8 49.7
03:25 1017 30.03 846 24.98 17.2 63 62 10 50
03:30 1016 30 846 24.98 17 62.6 63 9.9 49.9
03:35 1016 30 846 24.98 16.7 62 64 9.9 49.8
03:40 1017 30.03 846 24.98 15.9 60.5 66 9.5 49.1
03:45 1017 30.03 846 24.98 15.1 59.3 68 9.4 48.9
03:50 1017 30.03 846 24.98 15.1 59.2 66 9 48.2
03:55 1017 30.03 846 24.98 15.5 59.8 64 8.8 47.9
04:00 1017 30.03 846 24.98 15.8 60.4 62 8.7 47.6
04:05 1017 30.03 846 24.98 16 60.8 60 8.3 47
04:10 1017 30.03 846 24.98 16.3 61.4 61 9 48.2
04:15 1017 30.03 846 24.98 16.1 61 63 9.2 48.6
04:20 1017 30.03 846 24.98 15.8 60.5 65 9.3 48.7
04:25 1017 30.03 846 24.98 15.4 59.7 65 8.9 48
04:30 1017 30.03 846 24.98 15.3 59.6 64 8.6 47.5
04:35 1017 30.03 846 24.98 15.5 59.9 64 8.7 47.7
04:40 1017 30.03 846 24.98 15.3 59.6 65 8.8 47.8
04:45 1017 30.03 846 24.98 15.1 59.3 66 8.8 47.9
04:50 1017 30.03 846 24.98 14.8 58.7 67 8.8 47.8
04:55 1017 30.03 846 24.98 14.7 58.5 66 8.6 47.4
05:00 1017 30.03 846 24.98 14.7 58.5 67 8.7 47.6
05:05 1017 30.03 846 24.98 14.5 58.2 67 8.6 47.5
05:10 1017 30.03 846 24.98 14.3 57.7 69 8.8 47.9
05:15 1017 30.03 846 24.98 13.8 56.8 71 8.7 47.7
05:20 1017 30.03 846 24.98 13.7 56.7 71 8.6 47.4
05:25 1017 30.03 846 24.98 13.9 56.9 70 8.5 47.4
05:30 1017 30.03 846 24.98 14 57.2 70 8.6 47.5
05:35 1017 30.03 846 24.98 13.7 56.6 73 8.9 48
05:40 1017 30.03 846 24.98 13.3 55.9 74 8.8 47.9
05:45 1017 30.03 846 24.98 13.2 55.7 73 8.5 47.4
05:50 1017 30.03 846 24.98 13.4 56.1 72 8.5 47.2
05:55 1017 30.03 846 24.98 13.6 56.5 72 8.6 47.6
06:00 1017 30.03 846 24.98 13.7 56.7 70 8.4 47.2
06:05 1017 30.03 846 24.98 14.2 57.6 68 8.5 47.3
06:10 1017 30.03 846 24.98 14.2 57.6 70 8.9 48
06:15 1017 30.03 846 24.98 14 57.2 71 9 48.1
06:20 1017 30.03 846 24.98 14.1 57.4 70 8.9 47.9
06:25 1017 30.03 846 24.98 14.3 57.8 70 9 48.3
06:30 1017 30.03 846 24.98 14.2 57.6 71 9.1 48.4
06:35 1017 30.03 846 24.98 14.1 57.4 72 9.2 48.6
06:40 1017 30.03 846 24.98 13.9 57.1 72 9.1 48.4
06:45 1017 30.03 846 24.98 14 57.1 72 9 48.2
06:50 1017 30.03 847 25.01 14.2 57.6 71 9.1 48.3
06:55 1017 30.03 847 25.01 14.4 58 70 9.1 48.4
07:00 1017 30.03 847 25.01 14.6 58.2 70 9.2 48.5
07:05 1017 30.03 847 25.01 14.8 58.6 69 9.1 48.4
07:10 1017 30.03 847 25.01 15.2 59.3 67 9.1 48.3
07:15 1017 30.03 847 25.01 15.4 59.8 66 9.3 48.7
07:20 1017 30.03 847 25.01 15.7 60.3 65 9.1 48.4
07:25 1017 30.03 847 25.01 16.1 60.9 64 9.2 48.6
07:30 1017 30.03 847 25.01 16.3 61.4 64 9.5 49.1
07:35 1017 30.03 847 25.01 16.8 62.2 61 9.3 48.8
07:40 1018 30.06 847 25.01 17.2 63 60 9.5 49.1
07:45 1017 30.03 847 25.01 18 64.3 58 9.8 49.6
07:50 1017 30.03 847 25.01 18.5 65.3 57 9.9 49.7
07:55 1017 30.03 847 25.01 18.8 65.8 56 10 49.9
08:00 1018 30.06 847 25.01 19.2 66.6 54 9.9 49.9
08:05 1018 30.06 847 25.01 19.5 67.1 55 10.4 50.7
08:10 1018 30.06 847 25.01 19.8 67.7 52 9.7 49.5
08:15 1018 30.06 847 25.01 19.7 67.5 53 10 50
08:20 1017 30.03 847 25.01 19.3 66.7 55 10.1 50.1
08:25 1018 30.06 847 25.01 19.7 67.4 53 9.9 49.9
08:30 1017 30.03 847 25.01 19.9 67.8 54 10.3 50.6
08:35 1017 30.03 847 25.01 20.2 68.3 52 10.1 50.1
08:40 1017 30.03 847 25.01 20.4 68.6 53 10.7 51.2
08:45 1017 30.03 847 25.01 20.6 69 53 10.7 51.3
08:50 1017 30.03 847 25.01 20.8 69.5 55 11.5 52.6
08:55 1017 30.03 847 25.01 19.8 67.6 56 10.8 51.5
09:00 1017 30.03 847 25.01 20.5 68.8 54 11 51.9
09:05 1017 30.03 847 25.01 20.1 68.2 56 11.2 52.2
09:10 1017 30.03 847 25.01 20.2 68.4 54 10.7 51.3
09:15 1017 30.03 847 25.01 21 69.8 51 10.7 51.3
09:20 1017 30.03 847 25.01 21.4 70.6 51 11.1 51.9
09:25 1017 30.03 847 25.01 21 69.8 53 11.1 51.9
09:30 1017 30.03 846 24.98 21.2 70.2 54 11.6 52.9
09:35 1017 30.03 846 24.98 21.2 70.1 54 11.5 52.7
09:40 1017 30.03 846 24.98 20.9 69.6 52 10.8 51.5
09:45 1017 30.03 846 24.98 21.3 70.3 51 11 51.8
09:50 1017 30.03 846 24.98 21.7 71 49 10.8 51.4
09:55 1017 30.03 846 24.98 21.6 70.8 49 10.6 51.1
10:00 1017 30.03 846 24.98 21.5 70.6 51 11 51.8
10:05 1017 30.03 846 24.98 22.1 71.7 48 10.8 51.4
10:10 1017 30.03 846 24.98 22.7 72.8 47 11 51.9
10:15 1017 30.03 846 24.98 22.1 71.8 51 11.6 52.8
10:20 1017 30.03 846 24.98 22.2 72 49 11.3 52.3
10:25 1017 30.03 846 24.98 22.6 72.8 48 11.2 52.2
10:30 1017 30.03 846 24.98 22.9 73.2 49 11.7 53
10:35 1017 30.03 846 24.98 22.8 73 48 11.4 52.5
10:40 1017 30.03 846 24.98 22.9 73.3 48 11.5 52.7
10:45 1017 30.03 846 24.98 22.9 73.2 47 11.3 52.3
10:50 1017 30.03 846 24.98 23.1 73.7 48 11.6 52.9
10:55 1017 30.03 846 24.98 23.3 73.9 46 11.3 52.3
11:00 1017 30.03 846 24.98 23 73.3 45 10.5 50.8
11:05 1017 30.03 846 24.98 23 73.4 46 10.8 51.4
11:10 1017 30.03 846 24.98 23.1 73.6 46 11.2 52.1
11:15 1017 30.03 846 24.98 22.8 73 49 11.5 52.8
11:20 1017 30.03 846 24.98 22.5 72.5 45 10 50.1
11:25 1017 30.03 846 24.98 23.5 74.4 43 10.5 50.9
11:30 1017 30.03 846 24.98 23.1 73.5 44 10.3 50.5
11:35 1017 30.03 846 24.98 23.2 73.7 45 10.7 51.3
11:40 1017 30.03 846 24.98 23.6 74.5 43 10.5 50.9
11:45 1017 30.03 846 24.98 23.6 74.5 43 10.5 50.9
11:50 1017 30.03 846 24.98 24.4 75.9 42 10.8 51.4
11:55 1017 30.03 846 24.98 24.7 76.4 41 10.8 51.5
12:00 1017 30.03 846 24.98 24.9 76.8 40 10.6 51.1
12:05 1017 30.03 846 24.98 24.9 76.8 40 10.7 51.3
12:10 1017 30.03 846 24.98 24.8 76.6 41 11 51.8
12:15 1017 30.03 846 24.98 24.7 76.5 40 10.5 51
12:20 1017 30.03 846 24.98 25 77 40 10.8 51.5
12:25 1017 30.03 846 24.98 24.9 76.9 40 10.6 51.2
12:30 1017 30.03 846 24.98 24.8 76.6 41 11 51.8
12:35 1017 30.03 846 24.98 24.1 75.4 43 11 51.8
12:40 1017 30.03 846 24.98 23.7 74.7 44 11 51.8
12:45 1017 30.03 846 24.98 23.6 74.4 44 10.9 51.6
12:50 1017 30.03 846 24.98 23.8 74.8 43 10.7 51.2
12:55 1017 30.03 846 24.98 23.3 74 45 11 51.9
13:00 1017 30.03 846 24.98 23.6 74.4 45 11.1 52
13:05 1017 30.03 846 24.98 23.3 74 47 11.7 53
13:10 1017 30.03 846 24.98 23.5 74.2 45 11.2 52.1
13:15 1017 30.03 846 24.98 24 75.2 45 11.5 52.7
13:20 1017 30.03 846 24.98 24.1 75.3 46 11.8 53.2
13:25 1017 30.03 846 24.98 23.8 74.8 44 11 51.9
13:30 1017 30.03 846 24.98 23.6 74.5 45 11 51.8
13:35 1017 30.03 846 24.98 23.2 73.8 45 10.7 51.3
13:40 1017 30.03 846 24.98 23.9 75.1 43 10.7 51.2
13:45 1017 30.03 846 24.98 24.3 75.7 42 10.7 51.3
13:50 1017 30.03 846 24.98 24.3 75.8 40 10.1 50.2
13:55 1017 30.03 846 24.98 24.4 76 41 10.5 51
14:00 1017 30.03 846 24.98 24.2 75.6 43 10.9 51.6
14:05 1017 30.03 846 24.98 23.9 75 43 10.7 51.3
14:10 1017 30.03 846 24.98 23.2 73.8 44 10.5 50.9
14:15 1017 30.03 846 24.98 23.2 73.8 42 9.9 49.9
14:20 1017 30.03 846 24.98 23.6 74.5 42 10.1 50.3
14:25 1017 30.03 846 24.98 23.6 74.4 43 10.5 50.8
14:30 1017 30.03 846 24.98 23.3 73.9 44 10.5 50.9
14:35 1017 30.03 846 24.98 23.3 73.9 43 10.3 50.6
14:40 1017 30.03 846 24.98 23.2 73.7 44 10.3 50.6
14:45 1017 30.03 846 24.98 23.4 74 41 9.7 49.4
14:50 1017 30.03 846 24.98 23.5 74.3 42 10.1 50.1
14:55 1017 30.03 846 24.98 24 75.2 40 9.7 49.5
15:00 1017 30.03 846 24.98 24.4 75.9 39 9.8 49.7
15:05 1017 30.03 846 24.98 24.6 76.3 39 10.1 50.1
15:10 1017 30.03 846 24.98 24.5 76.1 39 9.7 49.5
15:15 1017 30.03 846 24.98 24.7 76.4 38 9.6 49.4
15:20 1017 30.03 846 24.98 25.5 77.9 36 9.6 49.2
15:25 1017 30.03 846 24.98 25.2 77.3 38 9.9 49.9
15:30 1017 30.03 846 24.98 24.7 76.4 38 9.8 49.7
15:35 1017 30.03 846 24.98 24.7 76.5 39 10.1 50.2
15:40 1017 30.03 846 24.98 24.5 76 38 9.6 49.2
15:45 1017 30.03 846 24.98 24.6 76.3 38 9.6 49.3
15:50 1017 30.03 846 24.98 24.7 76.5 38 9.7 49.4
15:55 1017 30.03 846 24.98 25 76.9 39 10.2 50.4
16:00 1017 30.03 846 24.98 24.8 76.6 39 10.3 50.5
16:05 1017 30.03 846 24.98 24.4 76 41 10.4 50.7
16:10 1017 30.03 846 24.98 24.4 75.9 40 10.3 50.5
16:15 1017 30.03 846 24.98 24.3 75.8 42 10.7 51.2
16:20 1017 30.03 846 24.98 23.6 74.4 43 10.3 50.6
16:25 1017 30.03 846 24.98 23.4 74.2 42 10 50
16:30 1017 30.03 846 24.98 23.5 74.3 42 10.1 50.2
16:35 1017 30.03 846 24.98 23.5 74.3 42 10 50.1
16:40 1017 30.03 846 24.98 23 73.4 43 10 50
16:45 1017 30.03 846 24.98 22.6 72.7 43 9.6 49.3
16:50 1017 30.03 846 24.98 22.9 73.2 44 10.3 50.5
16:55 1017 30.03 846 24.98 23.6 74.4 42 10.1 50.1
17:00 1017 30.03 846 24.98 24.2 75.5 42 10.6 51
17:05 1017 30.03 846 24.98 24 75.2 40 10 49.9
17:10 1017 30.03 846 24.98 23.9 75 40 9.7 49.4
17:15 1017 30.03 846 24.98 23.9 75 41 10.1 50.2
17:20 1017 30.03 846 24.98 24.2 75.5 39 9.7 49.5
17:25 1017 30.03 846 24.98 24.4 75.9 39 9.8 49.6
17:30 1017 30.03 846 24.98 24.3 75.8 40 10 50
17:35 1017 30.03 846 24.98 24.2 75.5 38 9.3 48.7
17:40 1017 30.03 846 24.98 24.4 75.9 39 9.7 49.5
17:45 1017 30.03 846 24.98 24.4 75.9 39 9.7 49.5
17:50 1017 30.03 846 24.98 24.8 76.7 38 9.6 49.2
17:55 1017 30.03 846 24.98 25 77 37 9.4 48.9
18:00 1017 30.03 846 24.98 25 77 36 9 48.2
18:05 1017 30.03 846 24.98 25.2 77.3 37 9.6 49.3
18:10 1017 30.03 846 24.98 25.1 77.1 38 9.8 49.7
18:15 1017 30.03 846 24.98 24.6 76.3 38 9.7 49.4
18:20 1017 30.03 846 24.98 24.6 76.2 38 9.6 49.4
18:25 1017 30.03 846 24.98 24.6 76.2 39 9.9 49.9
18:30 1017 30.03 846 24.98 24.5 76 38 9.6 49.3
18:35 1017 30.03 846 24.98 24.2 75.6 41 10.4 50.8
18:40 1017 30.03 846 24.98 24.3 75.7 39 9.7 49.5
18:45 1017 30.03 846 24.98 23.9 75.1 39 9.3 48.8
18:50 1017 30.03 846 24.98 23.8 74.8 40 9.6 49.2
18:55 1017 30.03 846 24.98 23.5 74.2 39 8.8 47.8
19:00 1016 30 846 24.98 23.5 74.3 40 9.3 48.7
19:05 1017 30.03 846 24.98 23.5 74.2 37 8 46.4
19:10 1016 30 846 24.98 23.5 74.2 35 7.3 45.1
19:15 1016 30 846 24.98 23.6 74.4 35 7.5 45.4
19:20 1016 30 846 24.98 23.7 74.7 34 7.1 44.7
19:25 1016 30 846 24.98 23.6 74.4 34 6.9 44.4
19:30 1017 30.03 846 24.98 23.8 74.8 35 7.6 45.6
19:35 1017 30.03 846 24.98 23.9 75 34 7.2 44.9
19:40 1017 30.03 846 24.98 23.8 74.9 35 7.7 45.9
19:45 1017 30.03 846 24.98 23.6 74.4 37 8.3 46.9
19:50 1017 30.03 846 24.98 23.3 74 39 8.8 47.8
19:55 1017 30.03 846 24.98 23.1 73.6 41 9.2 48.5
20:00 1017 30.03 846 24.98 23.1 73.6 40 8.9 48
20:05 1017 30.03 846 24.98 23.1 73.5 41 9.1 48.4
20:10 1017 30.03 846 24.98 23.1 73.5 40 8.9 48
20:15 1017 30.03 846 24.98 23.1 73.6 38 8.3 47
20:20 1017 30.03 846 24.98 23 73.3 40 8.9 48
20:25 1017 30.03 846 24.98 22.9 73.2 41 9.1 48.5
20:30 1017 30.03 846 24.98 22.8 73.1 40 8.5 47.4
20:35 1017 30.03 846 24.98 22.8 73 42 9.6 49.2
20:40 1017 30.03 846 24.98 22.7 72.9 46 10.8 51.4
20:45 1017 30.03 846 24.98 22.3 72.1 50 11.5 52.7
20:50 1017 30.03 846 24.98 22 71.6 53 12.1 53.8
20:55 1017 30.03 846 24.98 21.7 71 57 12.8 55.1
21:00 1017 30.03 846 24.98 21.3 70.3 56 12.2 53.9
21:05 1017 30.03 846 24.98 21 69.8 59 12.7 54.9
21:10 1017 30.03 846 24.98 20.8 69.4 58 12.3 54.2
21:15 1017 30.03 846 24.98 20.4 68.7 59 12.3 54.1
21:20 1017 30.03 846 24.98 20.2 68.4 60 12.2 54
21:25 1017 30.03 846 24.98 20.2 68.4 58 11.8 53.2
21:30 1017 30.03 846 24.98 20.2 68.3 58 11.8 53.3
21:35 1017 30.03 846 24.98 20.1 68.1 59 11.9 53.4
21:40 1017 30.03 846 24.98 20 68 61 12.3 54.1
21:45 1017 30.03 846 24.98 19.8 67.7 61 12.1 53.8
21:50 1017 30.03 846 24.98 19.5 67.2 59 11.5 52.7
21:55 1017 30.03 846 24.98 19.3 66.7 62 11.8 53.2
22:00 1017 30.03 846 24.98 19.1 66.4 59 11.1 51.9
22:05 1017 30.03 846 24.98 18.9 66.1 60 11.2 52.1
22:10 1017 30.03 846 24.98 18.7 65.6 60 10.9 51.7
22:15 1017 30.03 846 24.98 18.8 65.8 59 10.7 51.2
22:20 1017 30.03 846 24.98 18.9 65.9 58 10.6 51.1
22:25 1017 30.03 846 24.98 18.8 65.9 59 10.7 51.2
22:30 1017 30.03 846 24.98 18.8 65.8 60 10.8 51.5
22:35 1017 30.03 847 25.01 18.9 66.1 60 11 51.8
22:40 1017 30.03 847 25.01 18.9 66 57 10.3 50.5
22:45 1017 30.03 847 25.01 18.9 66.1 60 11.2 52.1
22:50 1017 30.03 847 25.01 18.7 65.7 61 11.3 52.3
22:55 1017 30.03 847 25.01 18.7 65.7 59 10.8 51.4
23:00 1017 30.03 847 25.01 18.5 65.3 59 10.6 51
23:05 1017 30.03 847 25.01 18.3 64.9 61 10.8 51.5
23:10 1017 30.03 847 25.01 18.3 64.9 60 10.4 50.8
23:15 1017 30.03 847 25.01 18.5 65.3 60 10.6 51.2
23:20 1017 30.03 847 25.01 18.7 65.6 63 11.6 52.8
23:25 1018 30.06 847 25.01 18.7 65.6 61 11.1 52
23:30 1018 30.06 847 25.01 18.5 65.4 62 11.2 52.1
23:35 1018 30.06 847 25.01 18.4 65 62 11 51.7
23:40 1018 30.06 847 25.01 18.1 64.6 60 10.4 50.7
23:45 1018 30.06 847 25.01 18 64.3 60 10.1 50.1
23:50 1018 30.06 847 25.01 17.8 64.1 61 10.3 50.6
23:55 1018 30.06 847 25.01 17.7 63.8 63 10.6 51.2
24:00 1018 30.06 847 25.01 17.5 63.4 63 10.5 50.9